Time;durP1;ratioP1;P1;durP2;ratioP2;P2;SDS_P1;SDS_P2;PMS_P1;PMS_P2;Temp;Humidity;BMP_temperature;BMP_pressure;BME280_temperature;BME280_humidity;BME280_pressure;Samples;Min_cycle;Max_cycle;Signal;HPM_P1;HPM_P2
2022/05/28 00:00:58;;;;;;;6.20;0.55;;;11.10;99.90;;;;;;5066799;28;20109;-77
2022/05/28 00:03:25;;;;;;;8.90;0.85;;;11.10;99.90;;;;;;5068403;28;20409;-77
2022/05/28 00:05:51;;;;;;;6.78;1.23;;;11.20;99.90;;;;;;5068923;28;20406;-77
2022/05/28 00:08:16;;;;;;;5.18;0.95;;;11.20;99.90;;;;;;5069405;28;20043;-77
2022/05/28 00:10:43;;;;;;;6.95;0.50;;;11.20;99.90;;;;;;5067062;28;20040;-77
2022/05/28 00:13:09;;;;;;;7.07;1.35;;;11.10;99.90;;;;;;5069154;28;20157;-77
2022/05/28 00:15:35;;;;;;;3.70;0.40;;;11.00;99.90;;;;;;5085630;28;20058;-77
2022/05/28 00:18:01;;;;;;;4.82;1.85;;;11.00;99.90;;;;;;5069315;28;20088;-77
2022/05/28 00:20:28;;;;;;;13.15;1.15;;;10.90;99.90;;;;;;5067194;28;20510;-77
2022/05/28 00:22:53;;;;;;;2.80;0.55;;;10.80;99.90;;;;;;5068467;28;20081;-77
2022/05/28 00:25:20;;;;;;;7.38;0.80;;;10.80;99.90;;;;;;5083502;28;20039;-77
2022/05/28 00:27:45;;;;;;;4.10;0.75;;;10.70;99.90;;;;;;5084907;28;20074;-77
2022/05/28 00:30:14;;;;;;;3.25;0.30;;;10.70;99.90;;;;;;5067687;28;20063;-77
2022/05/28 00:32:41;;;;;;;3.38;0.63;;;10.70;99.90;;;;;;5068017;28;20035;-77
2022/05/28 00:35:10;;;;;;;10.35;1.10;;;10.60;99.90;;;;;;5067384;28;20450;-77
2022/05/28 00:37:36;;;;;;;4.55;0.60;;;10.60;99.90;;;;;;5067828;28;20044;-77
2022/05/28 00:40:05;;;;;;;4.82;0.68;;;10.60;99.90;;;;;;5067996;28;20055;-77
2022/05/28 00:42:31;;;;;;;4.35;0.55;;;10.60;99.90;;;;;;5069207;28;20043;-77
2022/05/28 00:44:56;;;;;;;10.82;0.90;;;10.60;99.90;;;;;;5066470;28;20093;-77
2022/05/28 00:47:22;;;;;;;4.47;0.45;;;10.50;99.90;;;;;;5068468;28;20084;-77
2022/05/28 00:49:49;;;;;;;5.82;0.82;;;10.50;99.90;;;;;;5067039;28;20452;-78
2022/05/28 00:52:15;;;;;;;4.05;0.40;;;10.50;99.90;;;;;;5067463;28;20039;-78
2022/05/28 00:54:43;;;;;;;5.95;0.40;;;10.50;99.90;;;;;;5068390;28;20131;-77
2022/05/28 00:57:10;;;;;;;3.78;0.45;;;10.40;99.90;;;;;;5085804;28;20040;-78
2022/05/28 00:59:36;;;;;;;5.93;0.40;;;10.40;99.90;;;;;;5081746;28;20055;-77
2022/05/28 01:02:35;;;;;;;8.80;1.08;;;10.30;99.90;;;;;;5067701;28;20040;-77
2022/05/28 01:05:29;;;;;;;4.95;0.60;;;10.30;99.90;;;;;;5066289;28;20083;-77
2022/05/28 01:08:10;;;;;;;2.47;0.60;;;10.20;99.90;;;;;;5068157;28;20043;-77
2022/05/28 01:10:52;;;;;;;5.72;0.50;;;10.20;99.90;;;;;;5068394;28;20125;-77
2022/05/28 01:13:33;;;;;;;6.60;1.40;;;10.10;99.90;;;;;;5066075;28;20394;-77
2022/05/28 01:16:01;;;;;;;4.63;0.68;;;10.10;99.90;;;;;;5069171;28;20043;-77
2022/05/28 01:18:41;;;;;;;3.47;0.80;;;10.00;99.90;;;;;;5067104;28;20044;-77
2022/05/28 01:21:13;;;;;;;8.50;0.80;;;10.00;99.90;;;;;;5070277;28;20375;-77
2022/05/28 01:23:45;;;;;;;11.00;2.20;;;10.00;99.90;;;;;;5065854;28;20048;-78
2022/05/28 01:26:25;;;;;;;5.05;0.43;;;9.90;99.90;;;;;;5067142;28;20040;-77
2022/05/28 01:28:56;;;;;;;5.97;0.40;;;9.90;99.90;;;;;;5066449;28;20118;-77
2022/05/28 01:31:24;;;;;;;3.05;0.50;;;9.90;99.90;;;;;;5069193;28;20065;-77
2022/05/28 01:33:50;;;;;;;7.53;0.30;;;9.90;99.90;;;;;;5064175;28;20037;-77
2022/05/28 01:36:17;;;;;;;3.58;0.52;;;9.90;99.90;;;;;;5069116;28;20089;-77
2022/05/28 01:38:45;;;;;;;9.50;0.77;;;9.90;99.90;;;;;;5070840;28;20048;-77
2022/05/28 01:41:12;;;;;;;4.80;0.77;;;9.90;99.90;;;;;;5071353;28;20046;-77
2022/05/28 01:43:40;;;;;;;6.47;0.52;;;9.90;99.90;;;;;;5088118;28;20131;-77
2022/05/28 01:46:08;;;;;;;4.60;0.60;;;9.80;99.90;;;;;;5072078;28;20037;-77
2022/05/28 01:48:35;;;;;;;5.90;0.55;;;9.90;99.90;;;;;;5086636;28;20094;-77
2022/05/28 01:51:03;;;;;;;7.88;0.40;;;9.90;99.90;;;;;;5072683;28;20440;-77
2022/05/28 01:56:15;;;;;;;4.05;0.40;;;9.90;99.90;;;;;;5072034;28;20044;-77
2022/05/28 01:58:41;;;;;;;4.97;1.13;;;9.80;99.90;;;;;;5071953;28;20056;-77
2022/05/28 02:01:08;;;;;;;4.78;0.82;;;9.80;99.90;;;;;;5071014;28;20044;-77
2022/05/28 02:03:36;;;;;;;5.00;0.70;;;9.70;99.90;;;;;;5070061;28;20410;-77
2022/05/28 02:06:02;;;;;;;2.83;0.30;;;9.70;99.90;;;;;;5084499;28;20546;-77
2022/05/28 02:08:32;;;;;;;6.28;0.30;;;9.70;99.90;;;;;;5068156;28;20131;-78
2022/05/28 02:11:14;;;;;;;5.18;1.02;;;9.70;99.90;;;;;;5070862;28;20040;-78
2022/05/28 02:13:51;;;;;;;6.38;0.30;;;9.70;99.90;;;;;;5084907;28;20035;-77
2022/05/28 02:16:25;;;;;;;6.55;0.50;;;9.70;99.90;;;;;;5069563;28;20040;-77
2022/05/28 02:19:01;;;;;;;5.82;0.77;;;9.60;99.90;;;;;;5068794;28;20044;-77
2022/05/28 02:21:34;;;;;;;8.13;0.70;;;9.60;99.90;;;;;;5071342;28;20039;-78
2022/05/28 02:24:17;;;;;;;5.35;1.85;;;9.50;99.90;;;;;;5088041;28;20046;-78
2022/05/28 02:26:48;;;;;;;5.03;0.47;;;9.50;99.90;;;;;;5069851;28;20032;-78
2022/05/28 02:29:15;;;;;;;9.02;1.40;;;9.40;99.90;;;;;;5064378;28;20043;-77
2022/05/28 02:31:45;;;;;;;9.13;0.98;;;9.40;99.90;;;;;;5087872;28;20367;-77
2022/05/28 02:34:12;;;;;;;4.63;0.30;;;9.40;99.90;;;;;;5069251;28;20447;-77
2022/05/28 02:36:38;;;;;;;6.65;0.60;;;9.40;99.90;;;;;;5070960;28;20058;-77
2022/05/28 02:39:04;;;;;;;6.30;0.50;;;9.40;99.90;;;;;;5088421;28;20039;-77
2022/05/28 02:41:29;;;;;;;4.82;0.47;;;9.30;99.90;;;;;;5085744;28;20032;-78
2022/05/28 02:43:55;;;;;;;3.30;0.55;;;9.30;99.90;;;;;;5070420;28;20040;-78
2022/05/28 02:46:21;;;;;;;2.58;0.35;;;9.20;99.90;;;;;;5069719;28;20040;-78
2022/05/28 02:48:46;;;;;;;7.63;1.35;;;9.20;99.90;;;;;;5071451;28;20070;-78
2022/05/28 02:51:15;;;;;;;3.53;0.57;;;9.20;99.90;;;;;;5069282;28;20036;-78
2022/05/28 02:53:41;;;;;;;6.30;0.93;;;9.20;99.90;;;;;;5053581;28;20028;-78
2022/05/28 02:56:08;;;;;;;2.92;0.52;;;9.20;99.90;;;;;;5070106;28;20283;-78
2022/05/28 02:58:34;;;;;;;8.27;0.52;;;9.20;99.90;;;;;;5069230;28;20048;-78
2022/05/28 03:01:15;;;;;;;6.45;0.60;;;9.20;99.90;;;;;;5068713;28;20048;-78
2022/05/28 03:03:40;;;;;;;3.88;0.40;;;9.20;99.90;;;;;;5071391;28;20048;-78
2022/05/28 03:06:06;;;;;;;2.53;0.80;;;9.20;99.90;;;;;;5067668;28;20108;-78
2022/05/28 03:08:31;;;;;;;12.55;1.42;;;9.20;99.90;;;;;;5071816;28;20039;-78
2022/05/28 03:10:57;;;;;;;4.07;1.02;;;9.20;99.90;;;;;;5069644;28;20486;-78
2022/05/28 03:13:22;;;;;;;6.30;0.43;;;9.20;99.90;;;;;;5071125;28;20040;-79
2022/05/28 03:15:48;;;;;;;7.38;0.40;;;9.30;99.90;;;;;;5069634;28;20549;-78
2022/05/28 03:18:14;;;;;;;5.30;1.48;;;9.40;99.90;;;;;;5068427;28;20070;-78
2022/05/28 03:20:39;;;;;;;9.80;1.58;;;9.50;99.90;;;;;;5070362;28;20050;-78
2022/05/28 03:23:05;;;;;;;6.82;0.57;;;9.50;99.90;;;;;;5068792;28;20036;-79
2022/05/28 03:25:30;;;;;;;5.60;1.77;;;9.50;99.90;;;;;;5068715;28;20517;-78
2022/05/28 03:27:56;;;;;;;5.40;0.60;;;9.50;99.90;;;;;;5068553;28;20063;-78
2022/05/28 03:30:21;;;;;;;5.15;0.55;;;9.50;99.90;;;;;;5068577;28;20544;-78
2022/05/28 03:32:47;;;;;;;10.35;1.10;;;9.50;99.90;;;;;;5069575;28;20040;-78
2022/05/28 03:35:13;;;;;;;6.47;0.98;;;9.50;99.90;;;;;;5087086;28;20032;-78
2022/05/28 03:37:38;;;;;;;2.38;0.50;;;9.50;99.90;;;;;;5070734;28;20402;-78
2022/05/28 03:40:04;;;;;;;8.90;1.50;;;9.60;99.90;;;;;;5068029;28;20086;-78
2022/05/28 03:42:30;;;;;;;3.38;0.70;;;9.70;99.90;;;;;;5067907;28;20040;-78
2022/05/28 03:44:56;;;;;;;10.57;1.02;;;9.70;99.90;;;;;;5070200;28;20047;-78
2022/05/28 03:47:21;;;;;;;4.97;0.98;;;9.70;99.90;;;;;;5068823;28;20111;-78
2022/05/28 03:49:47;;;;;;;12.95;1.50;;;9.70;99.90;;;;;;5067828;28;20040;-78
2022/05/28 03:52:14;;;;;;;6.15;0.88;;;9.70;99.90;;;;;;5069409;28;20036;-78
2022/05/28 03:54:43;;;;;;;5.00;0.80;;;9.70;99.90;;;;;;5067951;28;20055;-77
2022/05/28 03:57:14;;;;;;;13.07;3.17;;;9.70;99.90;;;;;;5068562;28;20048;-78
2022/05/28 03:59:40;;;;;;;5.38;0.90;;;9.60;99.90;;;;;;5067045;28;20052;-78
2022/05/28 04:02:05;;;;;;;16.58;2.92;;;9.60;99.90;;;;;;5067744;28;20043;-79
2022/05/28 04:04:31;;;;;;;8.05;1.55;;;9.60;99.90;;;;;;5066526;28;20040;-78
2022/05/28 04:06:59;;;;;;;9.18;0.90;;;9.60;99.90;;;;;;5068662;28;20032;-79
2022/05/28 04:09:24;;;;;;;6.97;0.80;;;9.70;99.90;;;;;;5051491;28;20032;-79
2022/05/28 04:11:50;;;;;;;4.22;0.90;;;9.70;99.90;;;;;;5084936;28;21779;-78
2022/05/28 04:14:15;;;;;;;10.10;1.85;;;9.80;99.90;;;;;;5083757;28;20085;-78
2022/05/28 04:16:41;;;;;;;8.07;1.40;;;9.90;99.90;;;;;;5069345;28;20115;-79
2022/05/28 04:19:06;;;;;;;5.95;1.17;;;9.90;99.90;;;;;;5065916;28;20065;-79
2022/05/28 04:21:33;;;;;;;6.40;1.02;;;9.80;99.90;;;;;;5067451;28;21602;-79
2022/05/28 04:23:58;;;;;;;8.90;1.25;;;9.80;99.90;;;;;;5069199;28;20063;-79
2022/05/28 04:26:24;;;;;;;8.23;4.43;;;9.80;99.90;;;;;;5068401;28;20523;-78
2022/05/28 04:28:49;;;;;;;10.90;1.50;;;9.70;99.90;;;;;;5066418;28;20040;-78
2022/05/28 04:31:15;;;;;;;7.57;1.27;;;9.70;99.90;;;;;;5070036;28;20058;-78
2022/05/28 04:33:40;;;;;;;5.13;1.10;;;9.60;99.90;;;;;;5075310;28;20074;-78
2022/05/28 04:36:06;;;;;;;13.25;2.08;;;9.60;99.90;;;;;;5068487;28;20043;-78
2022/05/28 04:38:31;;;;;;;12.65;1.60;;;9.60;99.90;;;;;;5065430;28;20044;-78
2022/05/28 04:40:57;;;;;;;5.68;0.98;;;9.70;99.90;;;;;;5068672;28;20039;-78
2022/05/28 04:43:22;;;;;;;9.32;1.27;;;9.80;99.90;;;;;;5067569;28;20092;-78
2022/05/28 04:45:48;;;;;;;10.60;2.33;;;9.90;99.90;;;;;;5069855;28;20055;-80
2022/05/28 04:48:15;;;;;;;9.57;1.17;;;9.90;99.90;;;;;;5067631;28;20135;-80
2022/05/28 04:50:40;;;;;;;8.65;1.08;;;10.00;99.90;;;;;;5089506;28;20036;-81
2022/05/28 04:53:06;;;;;;;7.13;1.75;;;10.00;99.90;;;;;;5067834;28;20052;-79
2022/05/28 04:55:32;;;;;;;6.55;0.93;;;10.10;99.90;;;;;;5069624;28;20044;-78
2022/05/28 04:57:58;;;;;;;11.90;1.30;;;10.10;99.90;;;;;;5065138;28;20051;-78
2022/05/28 05:00:25;;;;;;;11.63;2.60;;;10.20;99.90;;;;;;5067262;28;20126;-78
2022/05/28 05:02:51;;;;;;;8.73;1.00;;;10.30;99.90;;;;;;5067379;28;20073;-78
2022/05/28 05:05:17;;;;;;;9.43;1.30;;;10.20;99.90;;;;;;5067810;28;21804;-78
2022/05/28 05:07:43;;;;;;;7.32;1.50;;;10.30;99.90;;;;;;5065555;28;20119;-78
2022/05/28 05:10:09;;;;;;;7.75;1.85;;;10.30;99.90;;;;;;5064646;28;20115;-78
2022/05/28 05:12:35;;;;;;;8.68;1.00;;;10.40;99.90;;;;;;5052027;28;20125;-78
2022/05/28 05:15:01;;;;;;;7.97;0.98;;;10.70;99.90;;;;;;5061299;28;20114;-78
2022/05/28 05:17:26;;;;;;;6.13;1.42;;;10.90;99.90;;;;;;5066481;28;20486;-78
2022/05/28 05:19:53;;;;;;;7.85;1.33;;;11.10;99.90;;;;;;5066098;28;20507;-78
2022/05/28 05:22:19;;;;;;;11.85;1.40;;;11.10;99.90;;;;;;5064110;28;20508;-77
2022/05/28 05:24:44;;;;;;;8.73;1.30;;;11.10;99.90;;;;;;5083442;28;20122;-77
2022/05/28 05:27:10;;;;;;;10.00;1.38;;;11.10;99.90;;;;;;5061588;28;20123;-78
2022/05/28 05:29:37;;;;;;;9.60;1.13;;;11.00;99.90;;;;;;5065013;28;20130;-77
2022/05/28 05:32:04;;;;;;;9.50;1.10;;;11.00;99.90;;;;;;5061038;28;20398;-77
2022/05/28 05:34:29;;;;;;;8.57;1.02;;;11.10;99.90;;;;;;5069474;28;20035;-78
2022/05/28 05:36:55;;;;;;;5.88;1.13;;;11.20;99.90;;;;;;5064857;28;20048;-79
2022/05/28 05:39:20;;;;;;;11.65;1.80;;;11.30;99.90;;;;;;5064789;28;20529;-78
2022/05/28 05:41:46;;;;;;;6.50;1.90;;;11.40;99.90;;;;;;5065717;28;20040;-78
2022/05/28 05:44:12;;;;;;;10.15;1.80;;;11.50;99.90;;;;;;5066291;28;20419;-78
2022/05/28 05:46:42;;;;;;;5.50;1.38;;;11.70;99.90;;;;;;5067168;28;20051;-78
2022/05/28 05:49:08;;;;;;;11.57;2.30;;;11.90;99.90;;;;;;5065540;28;20039;-78
2022/05/28 05:51:40;;;;;;;10.48;1.40;;;12.00;99.90;;;;;;5069617;28;20036;-78
2022/05/28 05:54:05;;;;;;;8.93;1.15;;;12.00;99.90;;;;;;5068178;28;20122;-77
2022/05/28 05:56:31;;;;;;;9.88;1.60;;;12.10;99.90;;;;;;5067708;28;20217;-77
2022/05/28 05:58:56;;;;;;;7.97;0.75;;;12.10;99.90;;;;;;5065236;28;20130;-77
2022/05/28 06:01:23;;;;;;;10.57;1.17;;;12.00;99.90;;;;;;5083244;28;20516;-77
2022/05/28 06:03:49;;;;;;;6.13;0.77;;;12.00;99.90;;;;;;5083287;28;20115;-77
2022/05/28 06:06:16;;;;;;;8.27;2.22;;;12.00;99.90;;;;;;5067036;28;20123;-77
2022/05/28 06:08:42;;;;;;;14.18;2.25;;;11.90;99.90;;;;;;5083674;28;20119;-77
2022/05/28 06:11:08;;;;;;;12.52;1.73;;;11.90;99.90;;;;;;5066897;28;20032;-77
2022/05/28 06:13:33;;;;;;;6.85;0.77;;;11.90;99.90;;;;;;5067635;28;20028;-77
2022/05/28 06:15:59;;;;;;;6.55;1.10;;;12.00;99.90;;;;;;5082652;28;20283;-77
2022/05/28 06:18:24;;;;;;;7.40;0.95;;;12.00;99.90;;;;;;5067758;28;20080;-77
2022/05/28 06:20:52;;;;;;;7.70;1.27;;;12.10;99.90;;;;;;5065527;28;20032;-77
2022/05/28 06:23:18;;;;;;;16.38;2.72;;;12.10;99.90;;;;;;5069461;28;20379;-77
2022/05/28 06:25:44;;;;;;;14.27;2.47;;;12.20;99.90;;;;;;5072449;28;20092;-77
2022/05/28 06:28:10;;;;;;;13.88;1.63;;;12.20;99.90;;;;;;5065246;28;20440;-77
2022/05/28 06:30:36;;;;;;;5.28;1.30;;;12.20;99.90;;;;;;5067304;28;20036;-77
2022/05/28 06:33:01;;;;;;;9.65;1.67;;;12.30;99.90;;;;;;5090384;28;20032;-77
2022/05/28 06:35:30;;;;;;;6.18;2.15;;;12.30;99.90;;;;;;5067982;28;20062;-76
2022/05/28 06:37:55;;;;;;;11.05;1.38;;;12.40;99.90;;;;;;5085155;28;20043;-77
2022/05/28 06:40:21;;;;;;;5.20;0.98;;;12.50;99.90;;;;;;5071208;28;20430;-76
2022/05/28 06:42:47;;;;;;;7.40;1.20;;;12.50;99.90;;;;;;5069433;28;20031;-76
2022/05/28 06:45:14;;;;;;;6.32;0.98;;;12.60;99.90;;;;;;5085463;28;20079;-77
2022/05/28 06:47:44;;;;;;;5.03;0.95;;;12.70;99.90;;;;;;5069239;28;20040;-77
2022/05/28 06:52:56;;;;;;;11.27;2.38;;;13.20;99.90;;;;;;5069857;28;20060;-77
2022/05/28 06:55:22;;;;;;;9.93;1.45;;;13.40;99.90;;;;;;5068342;28;20071;-77
2022/05/28 06:57:48;;;;;;;7.68;0.98;;;13.30;99.90;;;;;;5072727;28;20051;-80
2022/05/28 07:00:14;;;;;;;4.90;0.98;;;13.10;99.90;;;;;;5072511;28;20043;-80
2022/05/28 07:02:40;;;;;;;10.15;1.38;;;12.90;99.90;;;;;;5075278;28;20085;-80
2022/05/28 07:05:05;;;;;;;5.03;0.85;;;12.80;99.90;;;;;;5074364;28;20044;-80
2022/05/28 07:07:31;;;;;;;5.55;0.65;;;12.60;99.90;;;;;;5073095;28;20040;-80
2022/05/28 07:09:57;;;;;;;4.70;0.60;;;12.60;99.90;;;;;;5074014;28;20042;-80
2022/05/28 07:12:22;;;;;;;6.80;0.55;;;13.00;99.90;;;;;;5072669;28;20472;-79
2022/05/28 07:14:48;;;;;;;4.65;0.57;;;13.60;99.90;;;;;;5069571;28;20083;-79
2022/05/28 07:17:14;;;;;;;6.15;0.60;;;13.90;99.90;;;;;;5070516;28;20067;-79
2022/05/28 07:19:41;;;;;;;7.95;0.93;;;14.00;99.90;;;;;;5068597;28;20486;-78
2022/05/28 07:22:07;;;;;;;4.47;1.13;;;13.90;99.90;;;;;;5070429;28;20077;-78
2022/05/28 07:24:33;;;;;;;4.63;0.50;;;13.90;99.90;;;;;;5068612;28;20039;-78
2022/05/28 07:26:58;;;;;;;8.93;0.82;;;13.70;99.90;;;;;;5069832;28;20479;-78
2022/05/28 07:29:24;;;;;;;87.05;48.03;;;13.50;99.90;;;;;;5086780;28;20047;-77
2022/05/28 07:31:49;;;;;;;5.93;1.30;;;13.30;99.90;;;;;;5089784;28;20036;-77
2022/05/28 07:34:15;;;;;;;5.95;0.70;;;13.20;99.90;;;;;;5073325;28;20398;-77
2022/05/28 07:36:40;;;;;;;8.25;1.48;;;13.00;99.90;;;;;;5063625;28;20032;-77
2022/05/28 07:39:06;;;;;;;33.60;16.65;;;13.10;99.90;;;;;;5055092;28;20541;-77
2022/05/28 07:41:32;;;;;;;26.42;16.23;;;13.30;99.90;;;;;;5060707;28;20058;-77
2022/05/28 07:43:58;;;;;;;9.82;1.33;;;13.30;99.90;;;;;;5070296;28;20478;-76
2022/05/28 07:46:27;;;;;;;5.55;0.65;;;13.30;99.90;;;;;;5073990;28;20032;-77
2022/05/28 07:48:54;;;;;;;2.80;0.60;;;13.20;99.90;;;;;;5070289;28;20125;-76
2022/05/28 07:51:19;;;;;;;8.27;1.20;;;13.20;99.90;;;;;;5055341;28;20116;-76
2022/05/28 07:53:45;;;;;;;9.10;1.20;;;13.10;99.90;;;;;;5055347;28;20499;-77
2022/05/28 07:56:11;;;;;;;6.78;1.50;;;13.20;99.90;;;;;;5072240;28;20045;-76
2022/05/28 07:58:37;;;;;;;5.88;0.57;;;13.40;99.90;;;;;;5058177;28;20047;-76
2022/05/28 08:01:04;;;;;;;7.47;1.00;;;13.60;99.90;;;;;;5074435;28;20048;-76
2022/05/28 08:03:30;;;;;;;13.05;2.78;;;13.80;99.90;;;;;;5074092;28;20044;-76
2022/05/28 08:05:56;;;;;;;9.23;1.05;;;13.80;99.90;;;;;;5091323;22;20050;-76
2022/05/28 08:08:24;;;;;;;6.45;0.80;;;13.60;99.90;;;;;;5094736;28;20044;-76
2022/05/28 08:10:51;;;;;;;6.68;1.13;;;13.40;99.90;;;;;;5111840;28;20039;-76
2022/05/28 08:13:19;;;;;;;6.65;0.90;;;13.30;99.90;;;;;;5109434;28;20499;-76
2022/05/28 08:15:46;;;;;;;8.05;0.80;;;13.30;99.90;;;;;;5097712;28;20047;-76
2022/05/28 08:18:14;;;;;;;7.30;2.05;;;13.40;99.90;;;;;;5094404;28;20120;-76
2022/05/28 08:23:24;;;;;;;7.65;2.25;;;13.90;99.90;;;;;;5090736;28;20036;-77
2022/05/28 08:25:50;;;;;;;7.55;1.77;;;14.10;99.90;;;;;;5094224;28;20040;-81
2022/05/28 08:28:18;;;;;;;6.72;1.13;;;14.00;99.90;;;;;;5088910;28;20036;-81
2022/05/28 08:30:44;;;;;;;93.68;61.83;;;13.40;99.90;;;;;;5066025;28;20043;-82
2022/05/28 08:33:11;;;;;;;101.55;65.38;;;12.90;99.90;;;;;;5097086;28;20398;-81
2022/05/28 08:35:39;;;;;;;134.90;82.30;;;12.80;99.90;;;;;;5097826;28;20035;-82
2022/05/28 08:38:10;;;;;;;68.20;38.45;;;12.80;99.90;;;;;;5095349;28;20039;-81
2022/05/28 08:40:47;;;;;;;13.95;5.88;;;13.30;99.90;;;;;;5096779;28;20070;-81
2022/05/28 08:43:14;;;;;;;35.45;21.80;;;14.00;99.90;;;;;;5094863;28;20047;-79
2022/05/28 08:45:41;;;;;;;17.63;2.97;;;14.50;99.90;;;;;;5094321;28;20046;-80
2022/05/28 08:48:06;;;;;;;7.13;0.90;;;14.60;99.90;;;;;;5093236;28;20040;-80
2022/05/28 08:50:41;;;;;;;3.22;0.50;;;14.60;99.90;;;;;;5091944;28;20051;-79
2022/05/28 08:53:15;;;;;;;4.07;0.40;;;14.50;99.90;;;;;;5091472;28;20508;-79
2022/05/28 08:55:45;;;;;;;5.05;0.70;;;14.70;99.90;;;;;;5074171;28;20044;-79
2022/05/28 08:58:18;;;;;;;4.18;1.02;;;15.00;99.90;;;;;;5093859;28;20123;-78
2022/05/28 09:01:08;;;;;;;7.80;0.88;;;15.30;99.90;;;;;;5110577;28;20048;-79
2022/05/28 09:03:51;;;;;;;5.50;0.80;;;15.40;99.10;;;;;;5111235;28;20398;-78
2022/05/28 09:06:24;;;;;;;4.72;0.70;;;15.70;99.90;;;;;;5110578;28;20044;-78
2022/05/28 09:08:54;;;;;;;5.63;0.63;;;15.80;97.20;;;;;;5110748;28;20051;-78
2022/05/28 09:11:32;;;;;;;9.52;0.82;;;15.40;94.60;;;;;;5110645;28;20043;-78
2022/05/28 09:14:08;;;;;;;7.85;1.17;;;15.00;94.00;;;;;;5109865;28;20084;-78
2022/05/28 09:16:37;;;;;;;5.75;0.63;;;14.70;95.30;;;;;;5092675;28;20044;-78
2022/05/28 09:19:15;;;;;;;8.52;1.40;;;15.10;96.60;;;;;;5090482;28;20040;-79
2022/05/28 09:21:41;;;;;;;5.28;0.80;;;15.80;95.30;;;;;;5090011;28;20079;-78
2022/05/28 09:24:24;;;;;;;3.38;0.63;;;15.80;92.50;;;;;;5090302;28;20426;-78
2022/05/28 09:27:03;;;;;;;9.48;1.13;;;15.40;92.20;;;;;;5073581;28;20443;-78
2022/05/28 09:29:53;;;;;;;9.40;1.23;;;15.20;93.20;;;;;;5090340;28;20035;-78
2022/05/28 09:32:59;;;;;;;5.70;1.13;;;15.00;93.50;;;;;;5089698;28;20043;-78
2022/05/28 09:35:55;;;;;;;17.35;6.60;;;15.30;94.90;;;;;;5087419;28;20107;-78
2022/05/28 09:38:29;;;;;;;6.53;1.88;;;15.20;93.00;;;;;;5090296;28;20044;-77
2022/05/28 09:41:14;;;;;;;374.20;264.27;;;14.80;93.80;;;;;;5090517;28;20043;-78
2022/05/28 09:43:45;;;;;;;25.83;11.23;;;14.50;97.30;;;;;;5089755;28;20082;-77
2022/05/28 09:46:36;;;;;;;52.40;39.00;;;14.40;97.40;;;;;;5097551;28;20118;-77
2022/05/28 09:49:12;;;;;;;10.50;4.07;;;14.70;97.00;;;;;;5110628;28;20056;-77
2022/05/28 09:51:38;;;;;;;5.15;0.95;;;14.90;97.40;;;;;;5110167;28;20097;-77
2022/05/28 09:54:23;;;;;;;4.55;1.15;;;14.70;97.20;;;;;;5110297;28;20040;-77
2022/05/28 09:56:55;;;;;;;11.52;1.63;;;14.30;97.70;;;;;;5111588;28;20507;-77
2022/05/28 09:59:23;;;;;;;5.20;1.27;;;14.10;99.90;;;;;;5113158;28;20036;-77
2022/05/28 10:01:56;;;;;;;5.90;0.82;;;14.10;99.90;;;;;;5082413;28;20070;-78
2022/05/28 10:04:31;;;;;;;9.05;2.25;;;14.40;99.90;;;;;;5093807;28;20401;-78
2022/05/28 10:07:03;;;;;;;7.95;1.23;;;14.80;99.90;;;;;;5093508;28;20549;-78
2022/05/28 10:09:34;;;;;;;7.68;1.73;;;15.40;99.10;;;;;;5093858;28;20483;-78
2022/05/28 10:12:13;;;;;;;4.95;0.90;;;15.90;99.20;;;;;;5093190;28;20126;-78
2022/05/28 10:14:38;;;;;;;12.13;1.67;;;15.90;96.20;;;;;;5113923;28;20043;-78
2022/05/28 10:17:05;;;;;;;5.43;1.00;;;15.70;97.20;;;;;;5095817;28;20042;-77
2022/05/28 10:19:40;;;;;;;8.52;0.68;;;15.40;96.50;;;;;;5093366;28;20054;-78
2022/05/28 10:22:11;;;;;;;;;;;15.60;95.30;;;;;;5093507;28;20080;-78
2022/05/28 10:24:54;;;;;;;5.68;0.80;;;15.80;96.30;;;;;;5093181;28;19916;-78
2022/05/28 10:27:31;;;;;;;5.28;0.50;;;15.60;96.50;;;;;;5093667;28;20040;-79
2022/05/28 10:30:02;;;;;;;5.22;0.77;;;15.20;96.40;;;;;;5075184;28;20024;-78
2022/05/28 10:32:33;;;;;;;4.60;1.50;;;14.70;97.60;;;;;;5091977;28;20043;-77
2022/05/28 10:35:19;;;;;;;4.13;0.40;;;14.50;96.10;;;;;;5090718;28;20047;-78
2022/05/28 10:37:45;;;;;;;6.35;0.60;;;14.90;95.90;;;;;;5091344;28;20036;-77
2022/05/28 10:40:19;;;;;;;9.32;1.50;;;15.50;97.20;;;;;;5092976;28;20043;-77
2022/05/28 10:42:47;;;;;;;9.70;0.97;;;16.10;95.80;;;;;;5096295;28;20048;-77
2022/05/28 10:45:18;;;;;;;5.85;1.23;;;16.60;94.60;;;;;;5088862;28;20036;-78
2022/05/28 10:47:49;;;;;;;11.38;1.67;;;16.30;90.00;;;;;;5069602;28;20151;-77
2022/05/28 10:50:30;;;;;;;6.10;0.80;;;15.80;91.90;;;;;;5087503;28;20032;-77
2022/05/28 10:53:20;;;;;;;11.65;2.38;;;15.50;92.00;;;;;;5074050;28;20037;-77
2022/05/28 10:56:10;;;;;;;9.43;1.08;;;15.10;90.20;;;;;;5074272;28;20046;-77
2022/05/28 10:59:00;;;;;;;5.97;0.40;;;14.90;91.70;;;;;;5074004;28;20066;-77
2022/05/28 11:01:31;;;;;;;49.17;26.95;;;15.00;90.70;;;;;;5087883;28;20044;-77
2022/05/28 11:04:23;;;;;;;28.50;18.10;;;15.40;92.00;;;;;;5096061;28;20044;-77
2022/05/28 11:07:14;;;;;;;28.85;16.25;;;15.80;90.90;;;;;;5102451;28;20430;-77
2022/05/28 11:09:46;;;;;;;12.93;4.90;;;15.90;83.20;;;;;;5090413;28;20055;-79
2022/05/28 11:12:37;;;;;;;156.65;120.80;;;15.60;85.10;;;;;;5093070;28;20491;-78
2022/05/28 11:15:10;;;;;;;6.97;1.40;;;15.30;81.80;;;;;;5093786;28;20044;-77
2022/05/28 11:18:03;;;;;;;6.43;0.47;;;15.20;85.00;;;;;;5092420;28;20335;-77
2022/05/28 11:20:32;;;;;;;3.85;0.30;;;15.60;83.60;;;;;;5083222;28;20101;-77
2022/05/28 11:23:09;;;;;;;2.97;0.35;;;16.20;85.70;;;;;;5112003;28;20139;-77
2022/05/28 11:25:55;;;;;;;3.97;0.30;;;16.90;81.90;;;;;;5112605;28;20046;-77
2022/05/28 11:28:35;;;;;;;4.82;0.77;;;17.40;73.60;;;;;;5112585;28;20098;-77
2022/05/28 11:31:16;;;;;;;7.95;1.10;;;17.80;76.20;;;;;;5112583;28;20065;-77
2022/05/28 11:33:46;;;;;;;6.57;1.52;;;18.30;75.30;;;;;;5093141;28;20063;-77
2022/05/28 11:36:27;;;;;;;3.72;0.50;;;18.70;73.20;;;;;;5074698;28;20067;-78
2022/05/28 11:39:04;;;;;;;2.95;0.80;;;18.80;69.40;;;;;;5092091;28;20040;-77
2022/05/28 11:41:45;;;;;;;5.72;0.80;;;18.30;70.20;;;;;;5091982;28;20591;-77
2022/05/28 11:44:25;;;;;;;10.82;2.03;;;17.40;70.20;;;;;;5073197;28;20040;-77
2022/05/28 11:47:01;;;;;;;7.75;0.77;;;16.60;73.30;;;;;;5072791;28;20056;-77
2022/05/28 11:52:53;;;;;;;6.15;0.52;;;16.40;72.10;;;;;;5111386;28;20127;-77
2022/05/28 11:55:26;;;;;;;2.47;0.52;;;16.30;73.40;;;;;;5112098;28;20060;-77
2022/05/28 11:58:03;;;;;;;4.40;0.47;;;16.10;74.30;;;;;;5112067;28;20059;-77
2022/05/28 12:00:39;;;;;;;6.85;0.88;;;16.00;75.30;;;;;;5112511;28;20513;-77
2022/05/28 12:03:24;;;;;;;3.55;1.02;;;16.00;75.80;;;;;;5108869;28;20040;-77
2022/05/28 12:06:02;;;;;;;5.15;0.80;;;16.30;77.70;;;;;;5108251;28;20100;-77
2022/05/28 12:08:36;;;;;;;8.30;1.10;;;17.30;78.50;;;;;;5091279;28;20058;-77
2022/05/28 12:11:06;;;;;;;3.72;0.40;;;18.00;74.60;;;;;;5090569;28;20097;-77
2022/05/28 12:13:46;;;;;;;5.70;0.80;;;18.00;74.80;;;;;;5073336;28;20097;-77
2022/05/28 12:16:31;;;;;;;4.22;0.95;;;17.70;69.70;;;;;;5086254;28;20044;-77
2022/05/28 12:19:12;;;;;;;3.63;0.60;;;17.20;72.00;;;;;;5090724;28;20131;-77
2022/05/28 12:21:40;;;;;;;9.70;1.05;;;16.50;72.90;;;;;;5087907;28;20047;-77
2022/05/28 12:24:06;;;;;;;59.72;39.40;;;15.80;79.30;;;;;;5088030;28;20055;-78
2022/05/28 12:27:13;;;;;;;12.77;3.65;;;14.90;85.70;;;;;;5094568;28;20037;-79
2022/05/28 12:29:32;;;;;;;102.50;65.43;;;14.30;91.40;;;;;;5100355;28;20406;-78
2022/05/28 12:32:18;;;;;;;161.57;118.45;;;13.90;97.00;;;;;;5102672;28;20128;-78
2022/05/28 12:35:03;;;;;;;181.77;122.65;;;13.80;99.90;;;;;;5069572;28;20149;-78
2022/05/28 12:37:44;;;;;;;39.60;25.77;;;14.00;99.90;;;;;;5089396;28;20083;-79
2022/05/28 12:40:30;;;;;;;7.82;1.15;;;14.30;99.90;;;;;;5099459;28;20051;-80
2022/05/28 12:43:24;;;;;;;20.38;1.20;;;14.50;99.90;;;;;;5091491;28;20111;-80
2022/05/28 12:45:52;;;;;;;4.53;0.77;;;15.00;99.90;;;;;;5084889;28;20499;-80
2022/05/28 12:48:32;;;;;;;6.25;1.58;;;15.40;99.90;;;;;;5096860;28;20120;-81
2022/05/28 12:51:03;;;;;;;7.80;1.52;;;15.60;97.70;;;;;;5093479;28;20054;-78
2022/05/28 12:53:35;;;;;;;7.22;1.50;;;15.50;97.50;;;;;;5084782;28;20057;-78
2022/05/28 12:56:06;;;;;;;10.07;1.40;;;15.50;97.50;;;;;;5075084;28;20044;-79
2022/05/28 12:58:34;;;;;;;5.75;1.15;;;15.70;97.80;;;;;;5089142;28;20048;-78
2022/05/28 13:01:15;;;;;;;4.95;1.02;;;15.70;97.10;;;;;;5091829;28;20044;-78
2022/05/28 13:03:43;;;;;;;6.60;1.70;;;15.50;95.90;;;;;;5097053;28;20043;-78
2022/05/28 13:06:36;;;;;;;6.68;1.30;;;15.30;96.50;;;;;;5091292;28;20101;-78
2022/05/28 13:09:07;;;;;;;4.28;1.63;;;15.30;94.20;;;;;;5070429;28;20044;-78
2022/05/28 13:11:50;;;;;;;7.45;1.38;;;15.60;93.60;;;;;;5079665;28;20091;-77
2022/05/28 13:14:54;;;;;;;6.50;0.70;;;15.70;91.00;;;;;;5090035;28;20032;-77